sensor_id;sensor_type;location;lat;lon;timestamp;P1;durP1;ratioP1;P2;durP2;ratioP2
17177;SDS011;8704;52.006;4.374;2023-08-07T00:00:24;15.40;;;3.60;;
17177;SDS011;8704;52.006;4.374;2023-08-07T00:02:53;14.80;;;3.67;;
17177;SDS011;8704;52.006;4.374;2023-08-07T00:05:21;11.98;;;2.92;;
17177;SDS011;8704;52.006;4.374;2023-08-07T00:07:51;11.23;;;3.00;;
17177;SDS011;8704;52.006;4.374;2023-08-07T00:10:19;14.60;;;3.05;;
17177;SDS011;8704;52.006;4.374;2023-08-07T00:12:47;14.25;;;3.38;;
17177;SDS011;8704;52.006;4.374;2023-08-07T00:15:15;11.00;;;3.08;;
17177;SDS011;8704;52.006;4.374;2023-08-07T00:17:43;9.43;;;2.70;;
17177;SDS011;8704;52.006;4.374;2023-08-07T00:20:11;15.18;;;3.08;;
17177;SDS011;8704;52.006;4.374;2023-08-07T00:22:40;8.02;;;2.90;;
17177;SDS011;8704;52.006;4.374;2023-08-07T00:25:09;10.40;;;3.03;;
17177;SDS011;8704;52.006;4.374;2023-08-07T00:27:37;13.00;;;3.13;;
17177;SDS011;8704;52.006;4.374;2023-08-07T00:30:06;13.48;;;3.63;;
17177;SDS011;8704;52.006;4.374;2023-08-07T00:32:35;13.57;;;3.78;;
17177;SDS011;8704;52.006;4.374;2023-08-07T00:35:03;13.30;;;3.45;;
17177;SDS011;8704;52.006;4.374;2023-08-07T00:37:33;11.80;;;3.50;;
17177;SDS011;8704;52.006;4.374;2023-08-07T00:40:01;8.88;;;3.10;;
17177;SDS011;8704;52.006;4.374;2023-08-07T00:42:30;13.23;;;3.75;;
17177;SDS011;8704;52.006;4.374;2023-08-07T00:44:58;9.63;;;3.10;;
17177;SDS011;8704;52.006;4.374;2023-08-07T00:47:27;14.05;;;3.50;;
17177;SDS011;8704;52.006;4.374;2023-08-07T00:49:56;18.45;;;3.85;;
17177;SDS011;8704;52.006;4.374;2023-08-07T00:52:25;10.25;;;3.65;;
17177;SDS011;8704;52.006;4.374;2023-08-07T00:54:53;13.60;;;3.60;;
17177;SDS011;8704;52.006;4.374;2023-08-07T00:57:21;10.50;;;3.13;;
17177;SDS011;8704;52.006;4.374;2023-08-07T00:59:52;9.20;;;3.03;;
17177;SDS011;8704;52.006;4.374;2023-08-07T01:02:20;15.70;;;3.33;;
17177;SDS011;8704;52.006;4.374;2023-08-07T01:04:49;12.77;;;3.47;;
17177;SDS011;8704;52.006;4.374;2023-08-07T01:07:17;12.20;;;3.53;;
17177;SDS011;8704;52.006;4.374;2023-08-07T01:09:45;12.32;;;3.10;;
17177;SDS011;8704;52.006;4.374;2023-08-07T01:12:15;12.95;;;3.25;;
17177;SDS011;8704;52.006;4.374;2023-08-07T01:14:51;13.95;;;3.20;;
17177;SDS011;8704;52.006;4.374;2023-08-07T01:17:24;9.73;;;3.45;;
17177;SDS011;8704;52.006;4.374;2023-08-07T01:19:53;14.52;;;3.10;;
17177;SDS011;8704;52.006;4.374;2023-08-07T01:22:25;11.20;;;3.55;;
17177;SDS011;8704;52.006;4.374;2023-08-07T01:24:53;17.52;;;3.40;;
17177;SDS011;8704;52.006;4.374;2023-08-07T01:27:24;13.20;;;3.65;;
17177;SDS011;8704;52.006;4.374;2023-08-07T01:30:02;13.15;;;3.83;;
17177;SDS011;8704;52.006;4.374;2023-08-07T01:32:39;14.55;;;3.47;;
17177;SDS011;8704;52.006;4.374;2023-08-07T01:35:15;14.50;;;3.22;;
17177;SDS011;8704;52.006;4.374;2023-08-07T01:37:47;14.50;;;3.88;;
17177;SDS011;8704;52.006;4.374;2023-08-07T01:40:17;13.40;;;3.63;;
17177;SDS011;8704;52.006;4.374;2023-08-07T01:42:47;14.40;;;3.55;;
17177;SDS011;8704;52.006;4.374;2023-08-07T01:45:21;8.55;;;3.17;;
17177;SDS011;8704;52.006;4.374;2023-08-07T01:47:50;15.23;;;3.38;;
17177;SDS011;8704;52.006;4.374;2023-08-07T01:50:19;13.55;;;3.20;;
17177;SDS011;8704;52.006;4.374;2023-08-07T01:52:49;11.70;;;3.20;;
17177;SDS011;8704;52.006;4.374;2023-08-07T01:55:18;10.93;;;3.08;;
17177;SDS011;8704;52.006;4.374;2023-08-07T01:57:47;14.60;;;2.95;;
17177;SDS011;8704;52.006;4.374;2023-08-07T02:00:15;12.88;;;3.30;;
17177;SDS011;8704;52.006;4.374;2023-08-07T02:02:44;12.45;;;3.22;;
17177;SDS011;8704;52.006;4.374;2023-08-07T02:05:13;9.20;;;3.03;;
17177;SDS011;8704;52.006;4.374;2023-08-07T02:07:42;12.48;;;2.70;;
17177;SDS011;8704;52.006;4.374;2023-08-07T02:10:12;9.48;;;2.95;;
17177;SDS011;8704;52.006;4.374;2023-08-07T02:12:41;8.43;;;2.85;;
17177;SDS011;8704;52.006;4.374;2023-08-07T02:15:09;14.43;;;3.45;;
17177;SDS011;8704;52.006;4.374;2023-08-07T02:17:37;8.88;;;2.85;;
17177;SDS011;8704;52.006;4.374;2023-08-07T02:20:08;12.95;;;3.70;;
17177;SDS011;8704;52.006;4.374;2023-08-07T02:22:37;13.10;;;3.47;;
17177;SDS011;8704;52.006;4.374;2023-08-07T02:25:06;12.85;;;3.42;;
17177;SDS011;8704;52.006;4.374;2023-08-07T02:27:36;9.73;;;3.08;;
17177;SDS011;8704;52.006;4.374;2023-08-07T02:30:04;13.80;;;3.60;;
17177;SDS011;8704;52.006;4.374;2023-08-07T02:32:33;9.48;;;3.20;;
17177;SDS011;8704;52.006;4.374;2023-08-07T02:35:02;11.27;;;3.58;;
17177;SDS011;8704;52.006;4.374;2023-08-07T02:37:30;9.18;;;2.97;;
17177;SDS011;8704;52.006;4.374;2023-08-07T02:39:58;11.05;;;3.28;;
17177;SDS011;8704;52.006;4.374;2023-08-07T02:42:26;10.73;;;3.50;;
17177;SDS011;8704;52.006;4.374;2023-08-07T02:44:55;13.57;;;3.38;;
17177;SDS011;8704;52.006;4.374;2023-08-07T02:47:23;12.70;;;3.22;;
17177;SDS011;8704;52.006;4.374;2023-08-07T02:49:52;15.50;;;3.83;;
17177;SDS011;8704;52.006;4.374;2023-08-07T02:52:20;8.63;;;3.33;;
17177;SDS011;8704;52.006;4.374;2023-08-07T02:54:48;10.30;;;3.30;;
17177;SDS011;8704;52.006;4.374;2023-08-07T02:57:16;14.07;;;3.53;;
17177;SDS011;8704;52.006;4.374;2023-08-07T02:59:44;14.43;;;3.80;;
17177;SDS011;8704;52.006;4.374;2023-08-07T03:02:13;13.43;;;3.28;;
17177;SDS011;8704;52.006;4.374;2023-08-07T03:04:41;13.98;;;4.03;;
17177;SDS011;8704;52.006;4.374;2023-08-07T03:07:10;10.95;;;3.90;;
17177;SDS011;8704;52.006;4.374;2023-08-07T03:09:38;15.85;;;3.75;;
17177;SDS011;8704;52.006;4.374;2023-08-07T03:12:06;10.30;;;3.13;;
17177;SDS011;8704;52.006;4.374;2023-08-07T03:14:35;13.55;;;3.13;;
17177;SDS011;8704;52.006;4.374;2023-08-07T03:17:03;10.93;;;3.10;;
17177;SDS011;8704;52.006;4.374;2023-08-07T03:19:33;6.63;;;2.10;;
17177;SDS011;8704;52.006;4.374;2023-08-07T03:22:01;10.18;;;2.22;;
17177;SDS011;8704;52.006;4.374;2023-08-07T03:24:29;9.98;;;2.58;;
17177;SDS011;8704;52.006;4.374;2023-08-07T03:26:58;7.57;;;2.83;;
17177;SDS011;8704;52.006;4.374;2023-08-07T03:29:26;10.48;;;3.20;;
17177;SDS011;8704;52.006;4.374;2023-08-07T03:31:54;14.35;;;3.20;;
17177;SDS011;8704;52.006;4.374;2023-08-07T03:34:22;11.00;;;3.08;;
17177;SDS011;8704;52.006;4.374;2023-08-07T03:36:52;10.93;;;3.55;;
17177;SDS011;8704;52.006;4.374;2023-08-07T03:39:20;8.98;;;3.03;;
17177;SDS011;8704;52.006;4.374;2023-08-07T03:41:48;11.80;;;3.05;;
17177;SDS011;8704;52.006;4.374;2023-08-07T03:44:17;8.27;;;2.25;;
17177;SDS011;8704;52.006;4.374;2023-08-07T03:46:45;11.98;;;3.05;;
17177;SDS011;8704;52.006;4.374;2023-08-07T03:49:13;10.18;;;3.05;;
17177;SDS011;8704;52.006;4.374;2023-08-07T03:51:42;10.80;;;2.88;;
17177;SDS011;8704;52.006;4.374;2023-08-07T03:54:11;9.60;;;2.90;;
17177;SDS011;8704;52.006;4.374;2023-08-07T03:56:39;14.50;;;3.35;;
17177;SDS011;8704;52.006;4.374;2023-08-07T03:59:07;10.55;;;3.35;;
17177;SDS011;8704;52.006;4.374;2023-08-07T04:01:35;10.48;;;3.42;;
17177;SDS011;8704;52.006;4.374;2023-08-07T04:04:04;12.57;;;3.60;;
17177;SDS011;8704;52.006;4.374;2023-08-07T04:06:32;16.00;;;3.97;;
17177;SDS011;8704;52.006;4.374;2023-08-07T04:09:00;11.52;;;3.22;;
17177;SDS011;8704;52.006;4.374;2023-08-07T04:11:31;13.80;;;3.40;;
17177;SDS011;8704;52.006;4.374;2023-08-07T04:13:59;11.27;;;3.40;;
17177;SDS011;8704;52.006;4.374;2023-08-07T04:16:28;17.48;;;3.20;;
17177;SDS011;8704;52.006;4.374;2023-08-07T04:18:57;12.10;;;3.10;;
17177;SDS011;8704;52.006;4.374;2023-08-07T04:21:25;10.73;;;2.90;;
17177;SDS011;8704;52.006;4.374;2023-08-07T04:23:53;15.15;;;3.35;;
17177;SDS011;8704;52.006;4.374;2023-08-07T04:26:21;15.00;;;3.42;;
17177;SDS011;8704;52.006;4.374;2023-08-07T04:28:51;9.82;;;2.60;;
17177;SDS011;8704;52.006;4.374;2023-08-07T04:31:19;12.98;;;2.92;;
17177;SDS011;8704;52.006;4.374;2023-08-07T04:33:47;11.73;;;2.75;;
17177;SDS011;8704;52.006;4.374;2023-08-07T04:36:15;10.18;;;2.22;;
17177;SDS011;8704;52.006;4.374;2023-08-07T04:38:43;11.43;;;2.60;;
17177;SDS011;8704;52.006;4.374;2023-08-07T04:41:11;11.48;;;2.90;;
17177;SDS011;8704;52.006;4.374;2023-08-07T04:43:39;11.55;;;2.85;;
17177;SDS011;8704;52.006;4.374;2023-08-07T04:46:10;12.07;;;2.90;;
17177;SDS011;8704;52.006;4.374;2023-08-07T04:48:39;11.73;;;2.97;;
17177;SDS011;8704;52.006;4.374;2023-08-07T04:51:07;15.00;;;2.70;;
17177;SDS011;8704;52.006;4.374;2023-08-07T04:53:35;10.07;;;2.70;;
17177;SDS011;8704;52.006;4.374;2023-08-07T04:56:03;12.43;;;3.10;;
17177;SDS011;8704;52.006;4.374;2023-08-07T04:58:31;10.40;;;2.92;;
17177;SDS011;8704;52.006;4.374;2023-08-07T05:00:59;13.02;;;2.55;;
17177;SDS011;8704;52.006;4.374;2023-08-07T05:03:29;16.25;;;2.85;;
17177;SDS011;8704;52.006;4.374;2023-08-07T05:05:58;11.80;;;2.20;;
17177;SDS011;8704;52.006;4.374;2023-08-07T05:08:26;9.23;;;2.95;;
17177;SDS011;8704;52.006;4.374;2023-08-07T05:10:55;12.10;;;2.83;;
17177;SDS011;8704;52.006;4.374;2023-08-07T05:13:23;13.43;;;2.65;;
17177;SDS011;8704;52.006;4.374;2023-08-07T05:15:53;11.40;;;2.92;;
17177;SDS011;8704;52.006;4.374;2023-08-07T05:18:24;11.20;;;3.17;;
17177;SDS011;8704;52.006;4.374;2023-08-07T05:20:54;8.70;;;2.67;;
17177;SDS011;8704;52.006;4.374;2023-08-07T05:23:22;10.88;;;2.50;;
17177;SDS011;8704;52.006;4.374;2023-08-07T05:25:50;12.82;;;2.80;;
17177;SDS011;8704;52.006;4.374;2023-08-07T05:28:19;8.10;;;2.78;;
17177;SDS011;8704;52.006;4.374;2023-08-07T05:30:47;12.15;;;2.72;;
17177;SDS011;8704;52.006;4.374;2023-08-07T05:33:15;8.88;;;2.60;;
17177;SDS011;8704;52.006;4.374;2023-08-07T05:35:43;13.00;;;2.80;;
17177;SDS011;8704;52.006;4.374;2023-08-07T05:38:12;12.02;;;2.53;;
17177;SDS011;8704;52.006;4.374;2023-08-07T05:40:40;9.30;;;2.83;;
17177;SDS011;8704;52.006;4.374;2023-08-07T05:43:08;11.45;;;2.80;;
17177;SDS011;8704;52.006;4.374;2023-08-07T05:45:37;9.70;;;3.10;;
17177;SDS011;8704;52.006;4.374;2023-08-07T05:48:06;14.95;;;3.17;;
17177;SDS011;8704;52.006;4.374;2023-08-07T05:50:35;12.18;;;2.65;;
17177;SDS011;8704;52.006;4.374;2023-08-07T05:53:03;10.68;;;2.92;;
17177;SDS011;8704;52.006;4.374;2023-08-07T05:55:33;8.20;;;2.50;;
17177;SDS011;8704;52.006;4.374;2023-08-07T05:58:01;10.80;;;3.20;;
17177;SDS011;8704;52.006;4.374;2023-08-07T06:00:29;12.38;;;2.95;;
17177;SDS011;8704;52.006;4.374;2023-08-07T06:02:58;12.32;;;3.17;;
17177;SDS011;8704;52.006;4.374;2023-08-07T06:05:26;10.15;;;2.90;;
17177;SDS011;8704;52.006;4.374;2023-08-07T06:07:54;11.80;;;2.58;;
17177;SDS011;8704;52.006;4.374;2023-08-07T06:10:22;14.23;;;2.65;;
17177;SDS011;8704;52.006;4.374;2023-08-07T06:12:52;13.00;;;3.10;;
17177;SDS011;8704;52.006;4.374;2023-08-07T06:15:20;9.48;;;2.70;;
17177;SDS011;8704;52.006;4.374;2023-08-07T06:17:48;11.38;;;2.72;;
17177;SDS011;8704;52.006;4.374;2023-08-07T06:20:18;8.43;;;3.00;;
17177;SDS011;8704;52.006;4.374;2023-08-07T06:22:47;14.43;;;2.90;;
17177;SDS011;8704;52.006;4.374;2023-08-07T06:25:15;13.50;;;3.20;;
17177;SDS011;8704;52.006;4.374;2023-08-07T06:27:43;9.68;;;3.10;;
17177;SDS011;8704;52.006;4.374;2023-08-07T06:30:12;11.98;;;3.28;;
17177;SDS011;8704;52.006;4.374;2023-08-07T06:32:41;14.68;;;3.38;;
17177;SDS011;8704;52.006;4.374;2023-08-07T06:35:09;13.85;;;3.38;;
17177;SDS011;8704;52.006;4.374;2023-08-07T06:37:37;12.30;;;3.10;;
17177;SDS011;8704;52.006;4.374;2023-08-07T06:40:06;15.38;;;3.17;;
17177;SDS011;8704;52.006;4.374;2023-08-07T06:42:35;12.23;;;3.08;;
17177;SDS011;8704;52.006;4.374;2023-08-07T06:45:03;10.50;;;3.05;;
17177;SDS011;8704;52.006;4.374;2023-08-07T06:47:34;13.20;;;2.85;;
17177;SDS011;8704;52.006;4.374;2023-08-07T06:50:02;12.32;;;3.28;;
17177;SDS011;8704;52.006;4.374;2023-08-07T06:52:30;9.00;;;2.65;;
17177;SDS011;8704;52.006;4.374;2023-08-07T06:54:58;9.98;;;2.75;;
17177;SDS011;8704;52.006;4.374;2023-08-07T06:57:26;6.95;;;2.40;;
17177;SDS011;8704;52.006;4.374;2023-08-07T06:59:54;7.80;;;2.40;;
17177;SDS011;8704;52.006;4.374;2023-08-07T07:02:23;14.20;;;3.00;;
17177;SDS011;8704;52.006;4.374;2023-08-07T07:04:52;12.18;;;2.40;;
17177;SDS011;8704;52.006;4.374;2023-08-07T07:07:20;8.20;;;2.60;;
17177;SDS011;8704;52.006;4.374;2023-08-07T07:09:48;8.20;;;2.40;;
17177;SDS011;8704;52.006;4.374;2023-08-07T07:12:17;8.00;;;2.15;;
17177;SDS011;8704;52.006;4.374;2023-08-07T07:14:45;10.63;;;3.17;;
17177;SDS011;8704;52.006;4.374;2023-08-07T07:17:13;9.35;;;2.40;;
17177;SDS011;8704;52.006;4.374;2023-08-07T07:19:41;7.30;;;2.53;;
17177;SDS011;8704;52.006;4.374;2023-08-07T07:22:11;10.27;;;2.53;;
17177;SDS011;8704;52.006;4.374;2023-08-07T07:24:39;10.25;;;2.65;;
17177;SDS011;8704;52.006;4.374;2023-08-07T07:27:07;12.68;;;3.47;;
17177;SDS011;8704;52.006;4.374;2023-08-07T07:29:35;8.85;;;2.20;;
17177;SDS011;8704;52.006;4.374;2023-08-07T07:32:04;7.75;;;2.40;;
17177;SDS011;8704;52.006;4.374;2023-08-07T07:34:33;9.60;;;2.40;;
17177;SDS011;8704;52.006;4.374;2023-08-07T07:37:01;14.15;;;2.63;;
17177;SDS011;8704;52.006;4.374;2023-08-07T07:39:30;9.25;;;2.30;;
17177;SDS011;8704;52.006;4.374;2023-08-07T07:41:59;8.25;;;2.25;;
17177;SDS011;8704;52.006;4.374;2023-08-07T07:44:27;12.32;;;2.60;;
17177;SDS011;8704;52.006;4.374;2023-08-07T07:46:55;9.98;;;2.35;;
17177;SDS011;8704;52.006;4.374;2023-08-07T07:49:24;7.57;;;2.33;;
17177;SDS011;8704;52.006;4.374;2023-08-07T07:51:52;9.80;;;2.33;;
17177;SDS011;8704;52.006;4.374;2023-08-07T07:54:20;8.02;;;1.90;;
17177;SDS011;8704;52.006;4.374;2023-08-07T07:56:50;9.70;;;2.30;;
17177;SDS011;8704;52.006;4.374;2023-08-07T07:59:18;10.77;;;2.60;;
17177;SDS011;8704;52.006;4.374;2023-08-07T08:01:46;7.78;;;2.13;;
17177;SDS011;8704;52.006;4.374;2023-08-07T08:04:14;10.02;;;2.10;;
17177;SDS011;8704;52.006;4.374;2023-08-07T08:06:42;9.35;;;2.50;;
17177;SDS011;8704;52.006;4.374;2023-08-07T08:09:10;9.18;;;2.20;;
17177;SDS011;8704;52.006;4.374;2023-08-07T08:11:39;7.97;;;2.20;;
17177;SDS011;8704;52.006;4.374;2023-08-07T08:14:08;8.05;;;2.20;;
17177;SDS011;8704;52.006;4.374;2023-08-07T08:16:36;8.10;;;2.10;;
17177;SDS011;8704;52.006;4.374;2023-08-07T08:19:04;8.15;;;2.45;;
17177;SDS011;8704;52.006;4.374;2023-08-07T08:21:34;9.43;;;1.92;;
17177;SDS011;8704;52.006;4.374;2023-08-07T08:24:02;7.18;;;2.10;;
17177;SDS011;8704;52.006;4.374;2023-08-07T08:26:32;8.77;;;2.30;;
17177;SDS011;8704;52.006;4.374;2023-08-07T08:29:00;8.27;;;2.20;;
17177;SDS011;8704;52.006;4.374;2023-08-07T08:31:29;5.57;;;1.80;;
17177;SDS011;8704;52.006;4.374;2023-08-07T08:33:57;6.80;;;2.13;;
17177;SDS011;8704;52.006;4.374;2023-08-07T08:36:26;7.10;;;2.10;;
17177;SDS011;8704;52.006;4.374;2023-08-07T08:38:54;5.70;;;1.80;;
17177;SDS011;8704;52.006;4.374;2023-08-07T08:41:22;8.38;;;2.38;;
17177;SDS011;8704;52.006;4.374;2023-08-07T08:43:51;5.95;;;2.38;;
17177;SDS011;8704;52.006;4.374;2023-08-07T08:46:20;7.55;;;2.22;;
17177;SDS011;8704;52.006;4.374;2023-08-07T08:48:51;8.10;;;1.80;;
17177;SDS011;8704;52.006;4.374;2023-08-07T08:51:24;7.03;;;2.00;;
17177;SDS011;8704;52.006;4.374;2023-08-07T08:53:52;7.25;;;2.33;;
17177;SDS011;8704;52.006;4.374;2023-08-07T08:56:23;4.72;;;2.00;;
17177;SDS011;8704;52.006;4.374;2023-08-07T08:58:51;8.18;;;2.00;;
17177;SDS011;8704;52.006;4.374;2023-08-07T09:01:20;7.95;;;2.20;;
17177;SDS011;8704;52.006;4.374;2023-08-07T09:03:53;5.72;;;1.95;;
17177;SDS011;8704;52.006;4.374;2023-08-07T09:06:23;9.55;;;2.08;;
17177;SDS011;8704;52.006;4.374;2023-08-07T09:08:53;6.38;;;1.90;;
17177;SDS011;8704;52.006;4.374;2023-08-07T09:11:23;7.45;;;1.88;;
17177;SDS011;8704;52.006;4.374;2023-08-07T09:13:51;8.23;;;1.92;;
17177;SDS011;8704;52.006;4.374;2023-08-07T09:16:24;7.03;;;2.10;;
17177;SDS011;8704;52.006;4.374;2023-08-07T09:18:55;7.85;;;1.77;;
17177;SDS011;8704;52.006;4.374;2023-08-07T09:21:24;5.65;;;1.83;;
17177;SDS011;8704;52.006;4.374;2023-08-07T09:23:54;10.18;;;2.20;;
17177;SDS011;8704;52.006;4.374;2023-08-07T09:26:22;7.32;;;1.80;;
17177;SDS011;8704;52.006;4.374;2023-08-07T09:28:51;5.78;;;1.92;;
17177;SDS011;8704;52.006;4.374;2023-08-07T09:31:20;6.60;;;1.98;;
17177;SDS011;8704;52.006;4.374;2023-08-07T09:33:49;7.18;;;2.20;;
17177;SDS011;8704;52.006;4.374;2023-08-07T09:36:18;7.88;;;2.30;;
17177;SDS011;8704;52.006;4.374;2023-08-07T09:38:49;7.40;;;2.22;;
17177;SDS011;8704;52.006;4.374;2023-08-07T09:41:17;5.57;;;2.10;;
17177;SDS011;8704;52.006;4.374;2023-08-07T09:43:46;10.75;;;1.90;;
17177;SDS011;8704;52.006;4.374;2023-08-07T09:46:15;6.22;;;1.70;;
17177;SDS011;8704;52.006;4.374;2023-08-07T09:48:47;5.32;;;2.10;;
17177;SDS011;8704;52.006;4.374;2023-08-07T09:51:15;6.72;;;1.80;;
17177;SDS011;8704;52.006;4.374;2023-08-07T09:53:46;8.30;;;1.80;;
17177;SDS011;8704;52.006;4.374;2023-08-07T09:56:14;7.72;;;2.38;;
17177;SDS011;8704;52.006;4.374;2023-08-07T09:58:46;6.65;;;2.13;;
17177;SDS011;8704;52.006;4.374;2023-08-07T10:01:15;5.10;;;1.90;;
17177;SDS011;8704;52.006;4.374;2023-08-07T10:03:44;8.15;;;1.90;;
17177;SDS011;8704;52.006;4.374;2023-08-07T10:06:13;6.15;;;1.83;;
17177;SDS011;8704;52.006;4.374;2023-08-07T10:08:42;5.95;;;1.90;;
17177;SDS011;8704;52.006;4.374;2023-08-07T10:11:13;4.13;;;1.67;;
17177;SDS011;8704;52.006;4.374;2023-08-07T10:13:42;8.30;;;2.00;;
17177;SDS011;8704;52.006;4.374;2023-08-07T10:16:10;10.77;;;2.08;;
17177;SDS011;8704;52.006;4.374;2023-08-07T10:18:39;7.88;;;2.00;;
17177;SDS011;8704;52.006;4.374;2023-08-07T10:21:07;5.63;;;2.03;;
17177;SDS011;8704;52.006;4.374;2023-08-07T10:23:36;13.13;;;2.10;;
17177;SDS011;8704;52.006;4.374;2023-08-07T10:26:08;6.93;;;1.88;;
17177;SDS011;8704;52.006;4.374;2023-08-07T10:28:39;7.38;;;2.40;;
17177;SDS011;8704;52.006;4.374;2023-08-07T10:31:09;7.22;;;2.20;;
17177;SDS011;8704;52.006;4.374;2023-08-07T10:33:40;7.70;;;2.40;;
17177;SDS011;8704;52.006;4.374;2023-08-07T10:36:09;6.00;;;2.17;;
17177;SDS011;8704;52.006;4.374;2023-08-07T10:38:38;6.55;;;1.67;;
17177;SDS011;8704;52.006;4.374;2023-08-07T10:41:09;6.95;;;2.10;;
17177;SDS011;8704;52.006;4.374;2023-08-07T10:43:39;4.28;;;1.77;;
17177;SDS011;8704;52.006;4.374;2023-08-07T10:46:09;5.47;;;1.83;;
17177;SDS011;8704;52.006;4.374;2023-08-07T10:48:39;7.05;;;1.98;;
17177;SDS011;8704;52.006;4.374;2023-08-07T10:51:08;7.00;;;1.73;;
17177;SDS011;8704;52.006;4.374;2023-08-07T10:53:40;7.30;;;2.05;;
17177;SDS011;8704;52.006;4.374;2023-08-07T10:56:14;6.65;;;1.83;;
17177;SDS011;8704;52.006;4.374;2023-08-07T10:58:47;6.60;;;1.80;;
17177;SDS011;8704;52.006;4.374;2023-08-07T11:01:19;8.15;;;1.77;;
17177;SDS011;8704;52.006;4.374;2023-08-07T11:03:48;8.00;;;2.25;;
17177;SDS011;8704;52.006;4.374;2023-08-07T11:08:52;5.50;;;1.88;;
17177;SDS011;8704;52.006;4.374;2023-08-07T11:11:22;6.28;;;1.90;;
17177;SDS011;8704;52.006;4.374;2023-08-07T11:13:50;6.00;;;1.98;;
17177;SDS011;8704;52.006;4.374;2023-08-07T11:16:19;6.32;;;2.10;;
17177;SDS011;8704;52.006;4.374;2023-08-07T11:18:48;6.03;;;2.00;;
17177;SDS011;8704;52.006;4.374;2023-08-07T11:21:17;5.88;;;2.40;;
17177;SDS011;8704;52.006;4.374;2023-08-07T11:23:46;4.60;;;2.10;;
17177;SDS011;8704;52.006;4.374;2023-08-07T11:26:16;6.10;;;2.10;;
17177;SDS011;8704;52.006;4.374;2023-08-07T11:28:49;5.50;;;2.03;;
17177;SDS011;8704;52.006;4.374;2023-08-07T11:31:17;7.00;;;2.50;;
17177;SDS011;8704;52.006;4.374;2023-08-07T11:33:46;8.68;;;2.38;;
17177;SDS011;8704;52.006;4.374;2023-08-07T11:36:14;7.05;;;2.65;;
17177;SDS011;8704;52.006;4.374;2023-08-07T11:38:43;11.10;;;2.92;;
17177;SDS011;8704;52.006;4.374;2023-08-07T11:41:12;7.20;;;2.83;;
17177;SDS011;8704;52.006;4.374;2023-08-07T11:43:41;6.65;;;2.75;;
17177;SDS011;8704;52.006;4.374;2023-08-07T11:46:11;6.85;;;2.53;;
17177;SDS011;8704;52.006;4.374;2023-08-07T11:48:42;7.68;;;2.35;;
17177;SDS011;8704;52.006;4.374;2023-08-07T11:51:11;6.78;;;2.50;;
17177;SDS011;8704;52.006;4.374;2023-08-07T11:53:40;7.32;;;2.60;;
17177;SDS011;8704;52.006;4.374;2023-08-07T11:56:10;7.63;;;2.40;;
17177;SDS011;8704;52.006;4.374;2023-08-07T11:58:41;9.27;;;2.63;;
17177;SDS011;8704;52.006;4.374;2023-08-07T12:01:14;6.60;;;2.23;;
17177;SDS011;8704;52.006;4.374;2023-08-07T12:03:51;9.15;;;2.78;;
17177;SDS011;8704;52.006;4.374;2023-08-07T12:06:21;8.52;;;2.63;;
17177;SDS011;8704;52.006;4.374;2023-08-07T12:08:52;7.47;;;2.92;;
17177;SDS011;8704;52.006;4.374;2023-08-07T12:11:23;5.35;;;2.22;;
17177;SDS011;8704;52.006;4.374;2023-08-07T12:13:51;6.82;;;2.70;;
17177;SDS011;8704;52.006;4.374;2023-08-07T12:16:21;7.75;;;3.10;;
17177;SDS011;8704;52.006;4.374;2023-08-07T12:18:49;8.90;;;2.80;;
17177;SDS011;8704;52.006;4.374;2023-08-07T12:21:20;7.78;;;2.67;;
17177;SDS011;8704;52.006;4.374;2023-08-07T12:23:50;6.53;;;2.67;;
17177;SDS011;8704;52.006;4.374;2023-08-07T12:26:22;9.05;;;2.95;;
17177;SDS011;8704;52.006;4.374;2023-08-07T12:28:51;7.95;;;2.90;;
17177;SDS011;8704;52.006;4.374;2023-08-07T12:31:21;6.72;;;3.00;;
17177;SDS011;8704;52.006;4.374;2023-08-07T12:33:49;6.63;;;2.30;;
17177;SDS011;8704;52.006;4.374;2023-08-07T12:36:18;8.27;;;2.78;;
17177;SDS011;8704;52.006;4.374;2023-08-07T12:38:46;5.80;;;2.50;;
17177;SDS011;8704;52.006;4.374;2023-08-07T12:41:15;8.95;;;3.08;;
17177;SDS011;8704;52.006;4.374;2023-08-07T12:43:46;9.40;;;2.85;;
17177;SDS011;8704;52.006;4.374;2023-08-07T12:46:14;8.75;;;3.00;;
17177;SDS011;8704;52.006;4.374;2023-08-07T12:48:46;7.15;;;3.05;;
17177;SDS011;8704;52.006;4.374;2023-08-07T12:51:16;7.18;;;2.90;;
17177;SDS011;8704;52.006;4.374;2023-08-07T12:53:44;7.65;;;2.88;;
17177;SDS011;8704;52.006;4.374;2023-08-07T12:56:14;5.70;;;2.80;;
17177;SDS011;8704;52.006;4.374;2023-08-07T12:58:42;6.55;;;3.15;;
17177;SDS011;8704;52.006;4.374;2023-08-07T13:01:12;9.85;;;3.50;;
17177;SDS011;8704;52.006;4.374;2023-08-07T13:03:40;10.30;;;3.75;;
17177;SDS011;8704;52.006;4.374;2023-08-07T13:06:09;6.82;;;2.53;;
17177;SDS011;8704;52.006;4.374;2023-08-07T13:08:38;9.13;;;2.50;;
17177;SDS011;8704;52.006;4.374;2023-08-07T13:11:07;6.03;;;2.60;;
17177;SDS011;8704;52.006;4.374;2023-08-07T13:13:35;7.97;;;2.58;;
17177;SDS011;8704;52.006;4.374;2023-08-07T13:16:04;5.78;;;2.38;;
17177;SDS011;8704;52.006;4.374;2023-08-07T13:18:33;5.30;;;2.30;;
17177;SDS011;8704;52.006;4.374;2023-08-07T13:21:01;5.40;;;2.60;;
17177;SDS011;8704;52.006;4.374;2023-08-07T13:23:30;5.63;;;2.50;;
17177;SDS011;8704;52.006;4.374;2023-08-07T13:25:58;9.65;;;2.65;;
17177;SDS011;8704;52.006;4.374;2023-08-07T13:28:27;7.53;;;2.80;;
17177;SDS011;8704;52.006;4.374;2023-08-07T13:30:55;5.45;;;2.22;;
17177;SDS011;8704;52.006;4.374;2023-08-07T13:33:24;7.32;;;2.35;;
17177;SDS011;8704;52.006;4.374;2023-08-07T13:35:52;4.30;;;1.88;;
17177;SDS011;8704;52.006;4.374;2023-08-07T13:38:20;3.90;;;1.73;;
17177;SDS011;8704;52.006;4.374;2023-08-07T13:40:50;3.25;;;1.75;;
17177;SDS011;8704;52.006;4.374;2023-08-07T13:43:18;5.25;;;1.75;;
17177;SDS011;8704;52.006;4.374;2023-08-07T13:45:46;4.60;;;1.70;;
17177;SDS011;8704;52.006;4.374;2023-08-07T13:48:16;6.72;;;2.17;;
17177;SDS011;8704;52.006;4.374;2023-08-07T13:50:44;4.22;;;2.03;;
17177;SDS011;8704;52.006;4.374;2023-08-07T13:53:13;5.07;;;1.88;;
17177;SDS011;8704;52.006;4.374;2023-08-07T13:55:42;4.63;;;1.80;;
17177;SDS011;8704;52.006;4.374;2023-08-07T13:58:12;3.45;;;1.63;;
17177;SDS011;8704;52.006;4.374;2023-08-07T14:00:41;6.40;;;1.73;;
17177;SDS011;8704;52.006;4.374;2023-08-07T14:03:10;4.68;;;1.90;;
17177;SDS011;8704;52.006;4.374;2023-08-07T14:05:39;5.03;;;2.00;;
17177;SDS011;8704;52.006;4.374;2023-08-07T14:08:08;2.90;;;1.85;;
17177;SDS011;8704;52.006;4.374;2023-08-07T14:10:37;6.20;;;1.95;;
17177;SDS011;8704;52.006;4.374;2023-08-07T14:13:08;6.75;;;2.00;;
17177;SDS011;8704;52.006;4.374;2023-08-07T14:15:39;4.93;;;1.90;;
17177;SDS011;8704;52.006;4.374;2023-08-07T14:18:08;5.00;;;1.90;;
17177;SDS011;8704;52.006;4.374;2023-08-07T14:20:37;4.18;;;1.50;;
17177;SDS011;8704;52.006;4.374;2023-08-07T14:23:25;3.92;;;1.70;;
17177;SDS011;8704;52.006;4.374;2023-08-07T14:26:13;4.18;;;1.90;;
17177;SDS011;8704;52.006;4.374;2023-08-07T14:28:42;7.03;;;2.28;;
17177;SDS011;8704;52.006;4.374;2023-08-07T14:31:11;4.82;;;2.15;;
17177;SDS011;8704;52.006;4.374;2023-08-07T14:33:39;5.40;;;1.80;;
17177;SDS011;8704;52.006;4.374;2023-08-07T14:36:07;3.40;;;1.70;;
17177;SDS011;8704;52.006;4.374;2023-08-07T14:38:36;3.55;;;1.60;;
17177;SDS011;8704;52.006;4.374;2023-08-07T14:41:04;3.42;;;1.60;;
17177;SDS011;8704;52.006;4.374;2023-08-07T14:43:32;4.03;;;1.98;;
17177;SDS011;8704;52.006;4.374;2023-08-07T14:46:00;4.93;;;1.70;;
17177;SDS011;8704;52.006;4.374;2023-08-07T14:48:29;4.00;;;1.70;;
17177;SDS011;8704;52.006;4.374;2023-08-07T14:50:58;5.07;;;1.75;;
17177;SDS011;8704;52.006;4.374;2023-08-07T14:53:26;4.85;;;1.70;;
17177;SDS011;8704;52.006;4.374;2023-08-07T14:55:54;4.50;;;1.70;;
17177;SDS011;8704;52.006;4.374;2023-08-07T14:58:23;4.25;;;1.50;;
17177;SDS011;8704;52.006;4.374;2023-08-07T15:00:53;3.20;;;1.45;;
17177;SDS011;8704;52.006;4.374;2023-08-07T15:03:21;3.50;;;1.45;;
17177;SDS011;8704;52.006;4.374;2023-08-07T15:05:51;4.22;;;1.33;;
17177;SDS011;8704;52.006;4.374;2023-08-07T15:08:19;3.22;;;1.38;;